sensor_id;sensor_type;location;lat;lon;timestamp;P1;durP1;ratioP1;P2;durP2;ratioP2
50495;SDS011;38806;51.554;5.704;2023-03-23T00:01:21;7.43;;;3.95;;
50495;SDS011;38806;51.554;5.704;2023-03-23T00:03:22;9.35;;;4.78;;
50495;SDS011;38806;51.554;5.704;2023-03-23T00:05:22;6.53;;;3.30;;
50495;SDS011;38806;51.554;5.704;2023-03-23T00:07:22;6.35;;;3.63;;
50495;SDS011;38806;51.554;5.704;2023-03-23T00:09:27;5.75;;;3.67;;
50495;SDS011;38806;51.554;5.704;2023-03-23T00:11:28;7.28;;;4.00;;
50495;SDS011;38806;51.554;5.704;2023-03-23T00:13:31;7.95;;;3.90;;
50495;SDS011;38806;51.554;5.704;2023-03-23T00:15:32;6.15;;;3.40;;
50495;SDS011;38806;51.554;5.704;2023-03-23T00:17:33;8.80;;;3.95;;
50495;SDS011;38806;51.554;5.704;2023-03-23T00:19:33;5.68;;;3.13;;
50495;SDS011;38806;51.554;5.704;2023-03-23T00:21:44;8.32;;;3.85;;
50495;SDS011;38806;51.554;5.704;2023-03-23T00:23:45;7.68;;;3.83;;
50495;SDS011;38806;51.554;5.704;2023-03-23T00:25:46;6.28;;;3.38;;
50495;SDS011;38806;51.554;5.704;2023-03-23T00:27:46;9.80;;;4.32;;
50495;SDS011;38806;51.554;5.704;2023-03-23T00:29:50;9.10;;;3.58;;
50495;SDS011;38806;51.554;5.704;2023-03-23T00:31:53;5.82;;;3.10;;
50495;SDS011;38806;51.554;5.704;2023-03-23T00:33:53;9.55;;;4.30;;
50495;SDS011;38806;51.554;5.704;2023-03-23T00:35:54;7.68;;;3.72;;
50495;SDS011;38806;51.554;5.704;2023-03-23T00:37:54;7.18;;;3.85;;
50495;SDS011;38806;51.554;5.704;2023-03-23T00:39:55;6.13;;;3.28;;
50495;SDS011;38806;51.554;5.704;2023-03-23T00:41:57;7.22;;;3.80;;
50495;SDS011;38806;51.554;5.704;2023-03-23T00:44:00;5.75;;;3.42;;
50495;SDS011;38806;51.554;5.704;2023-03-23T00:46:00;7.72;;;5.10;;
50495;SDS011;38806;51.554;5.704;2023-03-23T00:48:01;8.75;;;4.72;;
50495;SDS011;38806;51.554;5.704;2023-03-23T00:50:03;8.23;;;3.53;;
50495;SDS011;38806;51.554;5.704;2023-03-23T00:52:05;9.40;;;3.80;;
50495;SDS011;38806;51.554;5.704;2023-03-23T00:54:06;10.13;;;4.70;;
50495;SDS011;38806;51.554;5.704;2023-03-23T00:56:07;9.00;;;3.78;;
50495;SDS011;38806;51.554;5.704;2023-03-23T00:58:08;8.05;;;3.28;;
50495;SDS011;38806;51.554;5.704;2023-03-23T01:00:09;10.40;;;3.45;;
50495;SDS011;38806;51.554;5.704;2023-03-23T01:02:10;7.28;;;3.95;;
50495;SDS011;38806;51.554;5.704;2023-03-23T01:04:11;5.55;;;3.67;;
50495;SDS011;38806;51.554;5.704;2023-03-23T01:06:12;7.38;;;3.55;;
50495;SDS011;38806;51.554;5.704;2023-03-23T01:08:15;7.20;;;3.95;;
50495;SDS011;38806;51.554;5.704;2023-03-23T01:10:16;4.70;;;3.08;;
50495;SDS011;38806;51.554;5.704;2023-03-23T01:12:17;7.07;;;3.83;;
50495;SDS011;38806;51.554;5.704;2023-03-23T01:14:19;5.82;;;3.40;;
50495;SDS011;38806;51.554;5.704;2023-03-23T01:16:20;6.75;;;3.35;;
50495;SDS011;38806;51.554;5.704;2023-03-23T01:18:20;8.45;;;3.95;;
50495;SDS011;38806;51.554;5.704;2023-03-23T01:20:20;5.40;;;3.38;;
50495;SDS011;38806;51.554;5.704;2023-03-23T01:22:21;5.88;;;3.40;;
50495;SDS011;38806;51.554;5.704;2023-03-23T01:24:21;7.93;;;3.38;;
50495;SDS011;38806;51.554;5.704;2023-03-23T01:26:22;7.82;;;4.28;;
50495;SDS011;38806;51.554;5.704;2023-03-23T01:28:23;4.80;;;3.45;;
50495;SDS011;38806;51.554;5.704;2023-03-23T01:30:23;8.98;;;4.00;;
50495;SDS011;38806;51.554;5.704;2023-03-23T01:32:23;7.18;;;4.00;;
50495;SDS011;38806;51.554;5.704;2023-03-23T01:34:24;6.93;;;3.75;;
50495;SDS011;38806;51.554;5.704;2023-03-23T01:36:26;8.07;;;3.90;;
50495;SDS011;38806;51.554;5.704;2023-03-23T01:38:28;6.25;;;4.18;;
50495;SDS011;38806;51.554;5.704;2023-03-23T01:40:28;6.07;;;3.80;;
50495;SDS011;38806;51.554;5.704;2023-03-23T01:42:33;5.63;;;3.67;;
50495;SDS011;38806;51.554;5.704;2023-03-23T01:46:34;8.37;;;4.47;;
50495;SDS011;38806;51.554;5.704;2023-03-23T01:48:35;8.98;;;3.85;;
50495;SDS011;38806;51.554;5.704;2023-03-23T01:50:48;6.32;;;3.80;;
50495;SDS011;38806;51.554;5.704;2023-03-23T01:52:52;5.50;;;3.35;;
50495;SDS011;38806;51.554;5.704;2023-03-23T01:54:54;9.02;;;4.18;;
50495;SDS011;38806;51.554;5.704;2023-03-23T01:56:56;6.38;;;3.70;;
50495;SDS011;38806;51.554;5.704;2023-03-23T01:58:58;6.00;;;3.15;;
50495;SDS011;38806;51.554;5.704;2023-03-23T02:00:58;7.13;;;4.60;;
50495;SDS011;38806;51.554;5.704;2023-03-23T02:03:00;7.15;;;4.30;;
50495;SDS011;38806;51.554;5.704;2023-03-23T02:05:02;5.45;;;3.90;;
50495;SDS011;38806;51.554;5.704;2023-03-23T02:07:04;5.97;;;3.50;;
50495;SDS011;38806;51.554;5.704;2023-03-23T02:09:04;6.25;;;3.63;;
50495;SDS011;38806;51.554;5.704;2023-03-23T02:11:19;7.57;;;4.10;;
50495;SDS011;38806;51.554;5.704;2023-03-23T02:13:20;7.10;;;4.18;;
50495;SDS011;38806;51.554;5.704;2023-03-23T02:15:20;6.45;;;4.50;;
50495;SDS011;38806;51.554;5.704;2023-03-23T02:17:33;6.70;;;4.03;;
50495;SDS011;38806;51.554;5.704;2023-03-23T02:26:27;8.50;;;3.63;;
50495;SDS011;38806;51.554;5.704;2023-03-23T02:30:57;6.57;;;4.00;;
50495;SDS011;38806;51.554;5.704;2023-03-23T02:35:42;6.25;;;3.40;;
50495;SDS011;38806;51.554;5.704;2023-03-23T02:37:36;7.30;;;3.50;;
50495;SDS011;38806;51.554;5.704;2023-03-23T02:39:40;6.63;;;4.45;;
50495;SDS011;38806;51.554;5.704;2023-03-23T02:41:43;6.15;;;3.67;;
50495;SDS011;38806;51.554;5.704;2023-03-23T02:43:45;7.43;;;4.05;;
50495;SDS011;38806;51.554;5.704;2023-03-23T02:45:46;10.38;;;3.72;;
50495;SDS011;38806;51.554;5.704;2023-03-23T02:47:47;6.22;;;3.30;;
50495;SDS011;38806;51.554;5.704;2023-03-23T02:49:49;7.10;;;4.22;;
50495;SDS011;38806;51.554;5.704;2023-03-23T02:51:51;7.05;;;4.18;;
50495;SDS011;38806;51.554;5.704;2023-03-23T02:53:52;6.65;;;3.58;;
50495;SDS011;38806;51.554;5.704;2023-03-23T02:55:53;7.53;;;3.13;;
50495;SDS011;38806;51.554;5.704;2023-03-23T02:57:55;7.30;;;3.92;;
50495;SDS011;38806;51.554;5.704;2023-03-23T02:59:55;6.28;;;4.20;;
50495;SDS011;38806;51.554;5.704;2023-03-23T03:01:57;7.07;;;4.40;;
50495;SDS011;38806;51.554;5.704;2023-03-23T03:04:00;6.95;;;3.70;;
50495;SDS011;38806;51.554;5.704;2023-03-23T03:06:12;8.38;;;4.10;;
50495;SDS011;38806;51.554;5.704;2023-03-23T03:10:37;7.57;;;3.70;;
50495;SDS011;38806;51.554;5.704;2023-03-23T03:12:46;8.90;;;4.55;;
50495;SDS011;38806;51.554;5.704;2023-03-23T03:14:53;5.85;;;3.60;;
50495;SDS011;38806;51.554;5.704;2023-03-23T03:19:08;8.20;;;4.22;;
50495;SDS011;38806;51.554;5.704;2023-03-23T03:21:12;5.63;;;3.60;;
50495;SDS011;38806;51.554;5.704;2023-03-23T03:23:14;7.10;;;4.65;;
50495;SDS011;38806;51.554;5.704;2023-03-23T03:25:15;7.32;;;4.30;;
50495;SDS011;38806;51.554;5.704;2023-03-23T03:27:17;6.90;;;4.05;;
50495;SDS011;38806;51.554;5.704;2023-03-23T03:29:19;7.40;;;3.90;;
50495;SDS011;38806;51.554;5.704;2023-03-23T03:31:30;7.20;;;5.28;;
50495;SDS011;38806;51.554;5.704;2023-03-23T03:33:32;6.95;;;4.07;;
50495;SDS011;38806;51.554;5.704;2023-03-23T03:35:35;8.73;;;3.95;;
50495;SDS011;38806;51.554;5.704;2023-03-23T03:37:37;6.82;;;3.97;;
50495;SDS011;38806;51.554;5.704;2023-03-23T03:39:37;7.25;;;4.10;;
50495;SDS011;38806;51.554;5.704;2023-03-23T03:41:38;7.72;;;4.32;;
50495;SDS011;38806;51.554;5.704;2023-03-23T03:43:38;6.95;;;4.22;;
50495;SDS011;38806;51.554;5.704;2023-03-23T03:45:38;7.80;;;4.90;;
50495;SDS011;38806;51.554;5.704;2023-03-23T03:47:40;6.40;;;4.25;;
50495;SDS011;38806;51.554;5.704;2023-03-23T03:49:41;6.85;;;3.78;;
50495;SDS011;38806;51.554;5.704;2023-03-23T03:51:41;7.00;;;3.80;;
50495;SDS011;38806;51.554;5.704;2023-03-23T03:53:41;8.50;;;4.82;;
50495;SDS011;38806;51.554;5.704;2023-03-23T03:55:41;7.85;;;4.47;;
50495;SDS011;38806;51.554;5.704;2023-03-23T03:57:48;6.10;;;3.83;;
50495;SDS011;38806;51.554;5.704;2023-03-23T03:59:49;6.47;;;3.30;;
50495;SDS011;38806;51.554;5.704;2023-03-23T04:01:49;8.40;;;3.65;;
50495;SDS011;38806;51.554;5.704;2023-03-23T04:03:54;7.20;;;3.60;;
50495;SDS011;38806;51.554;5.704;2023-03-23T04:05:55;8.52;;;3.20;;
50495;SDS011;38806;51.554;5.704;2023-03-23T04:07:55;8.77;;;3.85;;
50495;SDS011;38806;51.554;5.704;2023-03-23T04:10:01;7.68;;;3.40;;
50495;SDS011;38806;51.554;5.704;2023-03-23T04:12:02;6.88;;;3.00;;
50495;SDS011;38806;51.554;5.704;2023-03-23T04:14:02;7.80;;;3.75;;
50495;SDS011;38806;51.554;5.704;2023-03-23T04:16:03;7.32;;;4.38;;
50495;SDS011;38806;51.554;5.704;2023-03-23T04:18:03;6.28;;;3.40;;
50495;SDS011;38806;51.554;5.704;2023-03-23T04:20:05;4.47;;;2.45;;
50495;SDS011;38806;51.554;5.704;2023-03-23T04:22:13;6.35;;;3.50;;
50495;SDS011;38806;51.554;5.704;2023-03-23T04:24:16;6.38;;;3.20;;
50495;SDS011;38806;51.554;5.704;2023-03-23T04:26:16;6.50;;;2.97;;
50495;SDS011;38806;51.554;5.704;2023-03-23T04:28:17;6.20;;;2.72;;
50495;SDS011;38806;51.554;5.704;2023-03-23T04:30:22;6.25;;;2.65;;
50495;SDS011;38806;51.554;5.704;2023-03-23T04:32:23;13.52;;;4.25;;
50495;SDS011;38806;51.554;5.704;2023-03-23T04:34:24;5.57;;;2.30;;
50495;SDS011;38806;51.554;5.704;2023-03-23T04:36:25;6.53;;;2.13;;
50495;SDS011;38806;51.554;5.704;2023-03-23T04:38:26;7.63;;;2.42;;
50495;SDS011;38806;51.554;5.704;2023-03-23T04:40:26;10.70;;;3.60;;
50495;SDS011;38806;51.554;5.704;2023-03-23T04:42:27;9.40;;;1.88;;
50495;SDS011;38806;51.554;5.704;2023-03-23T04:44:28;8.15;;;2.53;;
50495;SDS011;38806;51.554;5.704;2023-03-23T04:46:29;5.45;;;2.42;;
50495;SDS011;38806;51.554;5.704;2023-03-23T04:48:30;5.93;;;2.28;;
50495;SDS011;38806;51.554;5.704;2023-03-23T04:50:33;6.47;;;3.85;;
50495;SDS011;38806;51.554;5.704;2023-03-23T04:52:33;7.68;;;2.60;;
50495;SDS011;38806;51.554;5.704;2023-03-23T04:54:34;8.15;;;2.15;;
50495;SDS011;38806;51.554;5.704;2023-03-23T04:56:34;9.15;;;2.67;;
50495;SDS011;38806;51.554;5.704;2023-03-23T04:58:36;8.82;;;1.95;;
50495;SDS011;38806;51.554;5.704;2023-03-23T05:00:37;5.22;;;2.97;;
50495;SDS011;38806;51.554;5.704;2023-03-23T05:02:37;6.20;;;2.90;;
50495;SDS011;38806;51.554;5.704;2023-03-23T05:04:39;14.98;;;2.50;;
50495;SDS011;38806;51.554;5.704;2023-03-23T05:06:40;7.35;;;1.90;;
50495;SDS011;38806;51.554;5.704;2023-03-23T05:08:41;8.57;;;2.03;;
50495;SDS011;38806;51.554;5.704;2023-03-23T05:10:41;4.70;;;1.70;;
50495;SDS011;38806;51.554;5.704;2023-03-23T05:12:41;10.63;;;2.75;;
50495;SDS011;38806;51.554;5.704;2023-03-23T05:14:42;6.15;;;2.30;;
50495;SDS011;38806;51.554;5.704;2023-03-23T05:16:42;4.93;;;1.98;;
50495;SDS011;38806;51.554;5.704;2023-03-23T05:18:47;7.60;;;2.55;;
50495;SDS011;38806;51.554;5.704;2023-03-23T05:20:47;7.22;;;2.03;;
50495;SDS011;38806;51.554;5.704;2023-03-23T05:22:48;7.00;;;2.13;;
50495;SDS011;38806;51.554;5.704;2023-03-23T05:24:49;10.07;;;2.55;;
50495;SDS011;38806;51.554;5.704;2023-03-23T05:26:52;7.53;;;2.28;;
50495;SDS011;38806;51.554;5.704;2023-03-23T05:28:52;7.88;;;3.17;;
50495;SDS011;38806;51.554;5.704;2023-03-23T05:30:53;6.82;;;2.50;;
50495;SDS011;38806;51.554;5.704;2023-03-23T05:32:53;11.13;;;3.38;;
50495;SDS011;38806;51.554;5.704;2023-03-23T05:34:54;5.20;;;3.08;;
50495;SDS011;38806;51.554;5.704;2023-03-23T05:36:55;7.78;;;2.33;;
50495;SDS011;38806;51.554;5.704;2023-03-23T05:38:55;9.25;;;3.22;;
50495;SDS011;38806;51.554;5.704;2023-03-23T05:40:58;8.90;;;2.58;;
50495;SDS011;38806;51.554;5.704;2023-03-23T05:43:00;9.68;;;3.17;;
50495;SDS011;38806;51.554;5.704;2023-03-23T05:45:04;6.95;;;3.47;;
50495;SDS011;38806;51.554;5.704;2023-03-23T05:47:05;5.35;;;2.65;;
50495;SDS011;38806;51.554;5.704;2023-03-23T05:49:05;8.07;;;2.63;;
50495;SDS011;38806;51.554;5.704;2023-03-23T05:51:05;10.93;;;4.15;;
50495;SDS011;38806;51.554;5.704;2023-03-23T05:53:05;9.77;;;3.03;;
50495;SDS011;38806;51.554;5.704;2023-03-23T05:55:06;15.37;;;3.33;;
50495;SDS011;38806;51.554;5.704;2023-03-23T05:57:07;9.68;;;3.47;;
50495;SDS011;38806;51.554;5.704;2023-03-23T05:59:08;6.63;;;2.70;;
50495;SDS011;38806;51.554;5.704;2023-03-23T06:01:10;6.55;;;3.50;;
50495;SDS011;38806;51.554;5.704;2023-03-23T06:03:13;7.60;;;2.97;;
50495;SDS011;38806;51.554;5.704;2023-03-23T06:05:15;7.88;;;3.53;;
50495;SDS011;38806;51.554;5.704;2023-03-23T06:07:15;9.52;;;3.03;;
50495;SDS011;38806;51.554;5.704;2023-03-23T06:09:16;8.00;;;3.45;;
50495;SDS011;38806;51.554;5.704;2023-03-23T06:11:17;10.98;;;3.42;;
50495;SDS011;38806;51.554;5.704;2023-03-23T06:13:17;15.25;;;3.35;;
50495;SDS011;38806;51.554;5.704;2023-03-23T06:15:17;9.25;;;3.08;;
50495;SDS011;38806;51.554;5.704;2023-03-23T06:17:18;11.05;;;4.93;;
50495;SDS011;38806;51.554;5.704;2023-03-23T06:19:18;9.95;;;3.15;;
50495;SDS011;38806;51.554;5.704;2023-03-23T06:21:18;8.93;;;3.00;;
50495;SDS011;38806;51.554;5.704;2023-03-23T06:23:18;6.05;;;3.22;;
50495;SDS011;38806;51.554;5.704;2023-03-23T06:25:18;8.18;;;4.97;;
50495;SDS011;38806;51.554;5.704;2023-03-23T06:27:19;6.13;;;2.70;;
50495;SDS011;38806;51.554;5.704;2023-03-23T06:29:20;8.43;;;3.63;;
50495;SDS011;38806;51.554;5.704;2023-03-23T06:31:20;6.38;;;3.03;;
50495;SDS011;38806;51.554;5.704;2023-03-23T06:33:20;8.77;;;3.53;;
50495;SDS011;38806;51.554;5.704;2023-03-23T06:35:21;9.68;;;3.25;;
50495;SDS011;38806;51.554;5.704;2023-03-23T06:37:21;9.43;;;3.30;;
50495;SDS011;38806;51.554;5.704;2023-03-23T06:39:21;10.40;;;3.23;;
50495;SDS011;38806;51.554;5.704;2023-03-23T06:41:22;8.07;;;4.43;;
50495;SDS011;38806;51.554;5.704;2023-03-23T06:43:22;12.35;;;6.13;;
50495;SDS011;38806;51.554;5.704;2023-03-23T06:45:23;8.77;;;3.45;;
50495;SDS011;38806;51.554;5.704;2023-03-23T06:47:23;12.00;;;4.50;;
50495;SDS011;38806;51.554;5.704;2023-03-23T06:49:24;6.88;;;2.97;;
50495;SDS011;38806;51.554;5.704;2023-03-23T06:51:24;8.68;;;3.55;;
50495;SDS011;38806;51.554;5.704;2023-03-23T06:53:24;8.15;;;2.65;;
50495;SDS011;38806;51.554;5.704;2023-03-23T06:55:24;10.82;;;3.88;;
50495;SDS011;38806;51.554;5.704;2023-03-23T06:57:25;9.88;;;4.35;;
50495;SDS011;38806;51.554;5.704;2023-03-23T06:59:26;9.02;;;3.22;;
50495;SDS011;38806;51.554;5.704;2023-03-23T07:01:26;8.30;;;3.47;;
50495;SDS011;38806;51.554;5.704;2023-03-23T07:03:28;8.43;;;2.42;;
50495;SDS011;38806;51.554;5.704;2023-03-23T07:05:28;7.90;;;2.65;;
50495;SDS011;38806;51.554;5.704;2023-03-23T07:07:29;7.80;;;2.78;;
50495;SDS011;38806;51.554;5.704;2023-03-23T07:09:29;9.68;;;2.65;;
50495;SDS011;38806;51.554;5.704;2023-03-23T07:11:30;6.00;;;3.05;;
50495;SDS011;38806;51.554;5.704;2023-03-23T07:13:30;6.00;;;2.10;;
50495;SDS011;38806;51.554;5.704;2023-03-23T07:15:31;7.32;;;2.35;;
50495;SDS011;38806;51.554;5.704;2023-03-23T07:17:31;18.95;;;4.05;;
50495;SDS011;38806;51.554;5.704;2023-03-23T07:19:31;6.25;;;2.05;;
50495;SDS011;38806;51.554;5.704;2023-03-23T07:21:32;15.30;;;3.27;;
50495;SDS011;38806;51.554;5.704;2023-03-23T07:23:32;4.30;;;1.90;;
50495;SDS011;38806;51.554;5.704;2023-03-23T07:25:32;7.53;;;3.45;;
50495;SDS011;38806;51.554;5.704;2023-03-23T07:27:32;17.85;;;4.03;;
50495;SDS011;38806;51.554;5.704;2023-03-23T07:29:33;8.90;;;4.15;;
50495;SDS011;38806;51.554;5.704;2023-03-23T07:31:35;12.38;;;4.50;;
50495;SDS011;38806;51.554;5.704;2023-03-23T07:33:35;14.57;;;4.47;;
50495;SDS011;38806;51.554;5.704;2023-03-23T07:35:36;12.02;;;3.90;;
50495;SDS011;38806;51.554;5.704;2023-03-23T07:37:36;12.23;;;4.63;;
50495;SDS011;38806;51.554;5.704;2023-03-23T07:39:36;9.15;;;4.07;;
50495;SDS011;38806;51.554;5.704;2023-03-23T07:41:37;12.02;;;4.57;;
50495;SDS011;38806;51.554;5.704;2023-03-23T07:43:37;10.38;;;4.30;;
50495;SDS011;38806;51.554;5.704;2023-03-23T07:45:38;7.75;;;5.13;;
50495;SDS011;38806;51.554;5.704;2023-03-23T07:47:38;16.88;;;6.10;;
50495;SDS011;38806;51.554;5.704;2023-03-23T07:49:38;9.95;;;5.30;;
50495;SDS011;38806;51.554;5.704;2023-03-23T07:51:39;8.93;;;4.70;;
50495;SDS011;38806;51.554;5.704;2023-03-23T07:53:39;15.63;;;5.15;;
50495;SDS011;38806;51.554;5.704;2023-03-23T07:55:41;22.27;;;6.38;;
50495;SDS011;38806;51.554;5.704;2023-03-23T07:57:41;15.52;;;7.38;;
50495;SDS011;38806;51.554;5.704;2023-03-23T07:59:41;6.18;;;3.35;;
50495;SDS011;38806;51.554;5.704;2023-03-23T08:01:42;19.10;;;3.67;;
50495;SDS011;38806;51.554;5.704;2023-03-23T08:03:42;4.93;;;1.90;;
50495;SDS011;38806;51.554;5.704;2023-03-23T08:05:42;5.25;;;1.75;;
50495;SDS011;38806;51.554;5.704;2023-03-23T08:07:43;4.65;;;1.67;;
50495;SDS011;38806;51.554;5.704;2023-03-23T08:09:45;8.95;;;1.88;;
50495;SDS011;38806;51.554;5.704;2023-03-23T08:11:45;5.75;;;1.70;;
50495;SDS011;38806;51.554;5.704;2023-03-23T08:13:48;5.88;;;2.20;;
50495;SDS011;38806;51.554;5.704;2023-03-23T08:15:48;7.10;;;2.40;;
50495;SDS011;38806;51.554;5.704;2023-03-23T08:17:48;8.05;;;2.42;;
50495;SDS011;38806;51.554;5.704;2023-03-23T08:19:50;7.93;;;3.28;;
50495;SDS011;38806;51.554;5.704;2023-03-23T08:21:52;9.68;;;2.70;;
50495;SDS011;38806;51.554;5.704;2023-03-23T08:23:53;6.35;;;2.22;;
50495;SDS011;38806;51.554;5.704;2023-03-23T08:25:53;7.55;;;2.47;;
50495;SDS011;38806;51.554;5.704;2023-03-23T08:27:55;12.93;;;2.60;;
50495;SDS011;38806;51.554;5.704;2023-03-23T08:29:55;6.35;;;2.05;;
50495;SDS011;38806;51.554;5.704;2023-03-23T08:31:56;6.75;;;2.13;;
50495;SDS011;38806;51.554;5.704;2023-03-23T08:33:57;4.32;;;1.52;;
50495;SDS011;38806;51.554;5.704;2023-03-23T08:35:58;4.45;;;2.35;;
50495;SDS011;38806;51.554;5.704;2023-03-23T08:37:58;5.18;;;2.05;;
50495;SDS011;38806;51.554;5.704;2023-03-23T08:39:58;5.50;;;1.77;;
50495;SDS011;38806;51.554;5.704;2023-03-23T08:41:59;4.45;;;1.58;;
50495;SDS011;38806;51.554;5.704;2023-03-23T08:43:59;4.80;;;1.30;;
50495;SDS011;38806;51.554;5.704;2023-03-23T08:45:59;13.20;;;3.38;;
50495;SDS011;38806;51.554;5.704;2023-03-23T08:47:59;3.95;;;1.60;;
50495;SDS011;38806;51.554;5.704;2023-03-23T08:50:00;2.55;;;1.40;;
50495;SDS011;38806;51.554;5.704;2023-03-23T08:52:00;2.77;;;1.13;;
50495;SDS011;38806;51.554;5.704;2023-03-23T08:54:00;6.85;;;1.17;;
50495;SDS011;38806;51.554;5.704;2023-03-23T08:56:05;3.70;;;1.52;;
50495;SDS011;38806;51.554;5.704;2023-03-23T08:58:05;5.32;;;0.80;;
50495;SDS011;38806;51.554;5.704;2023-03-23T09:00:06;3.05;;;0.90;;
50495;SDS011;38806;51.554;5.704;2023-03-23T09:02:15;2.33;;;0.77;;
50495;SDS011;38806;51.554;5.704;2023-03-23T09:04:16;4.45;;;1.20;;
50495;SDS011;38806;51.554;5.704;2023-03-23T09:06:16;6.90;;;1.60;;
50495;SDS011;38806;51.554;5.704;2023-03-23T09:08:17;3.30;;;1.00;;
50495;SDS011;38806;51.554;5.704;2023-03-23T09:10:17;4.53;;;1.45;;
50495;SDS011;38806;51.554;5.704;2023-03-23T09:12:18;3.05;;;1.00;;
50495;SDS011;38806;51.554;5.704;2023-03-23T09:14:18;3.58;;;0.68;;
50495;SDS011;38806;51.554;5.704;2023-03-23T09:16:18;3.08;;;1.40;;
50495;SDS011;38806;51.554;5.704;2023-03-23T09:18:19;7.45;;;1.20;;
50495;SDS011;38806;51.554;5.704;2023-03-23T09:20:20;4.85;;;1.02;;
50495;SDS011;38806;51.554;5.704;2023-03-23T09:22:21;2.88;;;0.88;;
50495;SDS011;38806;51.554;5.704;2023-03-23T09:24:23;6.50;;;1.02;;
50495;SDS011;38806;51.554;5.704;2023-03-23T09:26:24;4.78;;;1.20;;
50495;SDS011;38806;51.554;5.704;2023-03-23T09:28:24;5.95;;;1.23;;
50495;SDS011;38806;51.554;5.704;2023-03-23T09:30:25;14.77;;;3.78;;
50495;SDS011;38806;51.554;5.704;2023-03-23T09:32:26;4.15;;;1.10;;
50495;SDS011;38806;51.554;5.704;2023-03-23T09:34:27;5.18;;;1.00;;
50495;SDS011;38806;51.554;5.704;2023-03-23T09:36:29;3.78;;;1.80;;
50495;SDS011;38806;51.554;5.704;2023-03-23T09:38:31;8.25;;;1.23;;
50495;SDS011;38806;51.554;5.704;2023-03-23T09:40:39;3.20;;;1.02;;
50495;SDS011;38806;51.554;5.704;2023-03-23T09:49:09;1.95;;;0.90;;
50495;SDS011;38806;51.554;5.704;2023-03-23T09:53:15;6.63;;;1.95;;
50495;SDS011;38806;51.554;5.704;2023-03-23T09:55:17;4.68;;;1.08;;
50495;SDS011;38806;51.554;5.704;2023-03-23T09:59:40;4.43;;;0.95;;
50495;SDS011;38806;51.554;5.704;2023-03-23T10:01:55;3.80;;;0.80;;
50495;SDS011;38806;51.554;5.704;2023-03-23T10:04:31;3.63;;;0.88;;
50495;SDS011;38806;51.554;5.704;2023-03-23T10:06:25;3.22;;;0.80;;
50495;SDS011;38806;51.554;5.704;2023-03-23T10:08:29;3.00;;;0.67;;
50495;SDS011;38806;51.554;5.704;2023-03-23T10:10:36;5.55;;;1.27;;
50495;SDS011;38806;51.554;5.704;2023-03-23T10:17:03;9.85;;;2.20;;
50495;SDS011;38806;51.554;5.704;2023-03-23T10:19:10;3.83;;;0.90;;
50495;SDS011;38806;51.554;5.704;2023-03-23T10:21:12;6.18;;;2.50;;
50495;SDS011;38806;51.554;5.704;2023-03-23T10:25:20;3.90;;;1.15;;
50495;SDS011;38806;51.554;5.704;2023-03-23T10:29:30;3.97;;;1.00;;
50495;SDS011;38806;51.554;5.704;2023-03-23T10:31:32;3.15;;;0.82;;
50495;SDS011;38806;51.554;5.704;2023-03-23T10:33:41;3.25;;;0.90;;
50495;SDS011;38806;51.554;5.704;2023-03-23T10:37:50;2.83;;;1.10;;
50495;SDS011;38806;51.554;5.704;2023-03-23T10:39:57;2.83;;;0.90;;
50495;SDS011;38806;51.554;5.704;2023-03-23T10:41:59;5.78;;;1.60;;
50495;SDS011;38806;51.554;5.704;2023-03-23T10:48:28;8.43;;;1.58;;
50495;SDS011;38806;51.554;5.704;2023-03-23T10:50:32;6.57;;;1.80;;
50495;SDS011;38806;51.554;5.704;2023-03-23T10:52:38;3.45;;;1.10;;
50495;SDS011;38806;51.554;5.704;2023-03-23T10:54:39;2.80;;;1.42;;
50495;SDS011;38806;51.554;5.704;2023-03-23T10:56:46;4.72;;;1.58;;
50495;SDS011;38806;51.554;5.704;2023-03-23T10:58:46;7.80;;;1.60;;
50495;SDS011;38806;51.554;5.704;2023-03-23T11:00:47;8.17;;;1.70;;
50495;SDS011;38806;51.554;5.704;2023-03-23T11:07:19;9.93;;;2.13;;
50495;SDS011;38806;51.554;5.704;2023-03-23T11:09:21;4.20;;;1.52;;
50495;SDS011;38806;51.554;5.704;2023-03-23T11:11:29;9.10;;;2.20;;
50495;SDS011;38806;51.554;5.704;2023-03-23T11:13:30;7.07;;;1.85;;
50495;SDS011;38806;51.554;5.704;2023-03-23T11:15:36;5.05;;;2.28;;
50495;SDS011;38806;51.554;5.704;2023-03-23T11:17:37;6.30;;;1.63;;
50495;SDS011;38806;51.554;5.704;2023-03-23T11:19:37;5.57;;;1.33;;
50495;SDS011;38806;51.554;5.704;2023-03-23T11:21:37;7.10;;;1.85;;
50495;SDS011;38806;51.554;5.704;2023-03-23T11:23:42;5.97;;;2.35;;
50495;SDS011;38806;51.554;5.704;2023-03-23T11:28:13;8.80;;;1.77;;
50495;SDS011;38806;51.554;5.704;2023-03-23T11:30:20;7.78;;;2.17;;
50495;SDS011;38806;51.554;5.704;2023-03-23T11:32:23;7.72;;;2.25;;
50495;SDS011;38806;51.554;5.704;2023-03-23T11:34:30;5.93;;;1.50;;
50495;SDS011;38806;51.554;5.704;2023-03-23T11:36:40;6.80;;;1.70;;
50495;SDS011;38806;51.554;5.704;2023-03-23T11:38:40;4.57;;;2.15;;
50495;SDS011;38806;51.554;5.704;2023-03-23T11:40:44;6.70;;;1.65;;
50495;SDS011;38806;51.554;5.704;2023-03-23T11:44:52;6.35;;;1.27;;
50495;SDS011;38806;51.554;5.704;2023-03-23T11:49:04;4.15;;;1.65;;
50495;SDS011;38806;51.554;5.704;2023-03-23T11:57:26;5.87;;;1.23;;
50495;SDS011;38806;51.554;5.704;2023-03-23T11:59:34;4.80;;;1.00;;
50495;SDS011;38806;51.554;5.704;2023-03-23T12:05:43;5.93;;;1.70;;
50495;SDS011;38806;51.554;5.704;2023-03-23T12:14:16;3.30;;;1.30;;
50495;SDS011;38806;51.554;5.704;2023-03-23T12:16:31;4.35;;;1.38;;
50495;SDS011;38806;51.554;5.704;2023-03-23T12:18:37;6.93;;;1.75;;
50495;SDS011;38806;51.554;5.704;2023-03-23T12:25:12;7.00;;;1.52;;
50495;SDS011;38806;51.554;5.704;2023-03-23T12:27:11;5.03;;;1.35;;
50495;SDS011;38806;51.554;5.704;2023-03-23T12:29:49;6.13;;;1.20;;
50495;SDS011;38806;51.554;5.704;2023-03-23T12:31:47;3.00;;;1.48;;
50495;SDS011;38806;51.554;5.704;2023-03-23T12:33:53;5.68;;;1.48;;
50495;SDS011;38806;51.554;5.704;2023-03-23T12:36:02;5.13;;;1.35;;
50495;SDS011;38806;51.554;5.704;2023-03-23T12:40:10;4.55;;;2.22;;
50495;SDS011;38806;51.554;5.704;2023-03-23T12:44:37;5.43;;;1.80;;
50495;SDS011;38806;51.554;5.704;2023-03-23T12:46:46;4.70;;;1.58;;
50495;SDS011;38806;51.554;5.704;2023-03-23T12:51:21;3.15;;;1.33;;
50495;SDS011;38806;51.554;5.704;2023-03-23T12:53:31;8.50;;;2.10;;
50495;SDS011;38806;51.554;5.704;2023-03-23T12:55:39;7.10;;;2.28;;
50495;SDS011;38806;51.554;5.704;2023-03-23T12:57:55;6.97;;;2.97;;
50495;SDS011;38806;51.554;5.704;2023-03-23T13:00:05;6.05;;;2.10;;
50495;SDS011;38806;51.554;5.704;2023-03-23T13:02:19;7.90;;;1.50;;
50495;SDS011;38806;51.554;5.704;2023-03-23T13:04:22;6.85;;;2.22;;
50495;SDS011;38806;51.554;5.704;2023-03-23T13:06:25;7.05;;;2.38;;
50495;SDS011;38806;51.554;5.704;2023-03-23T13:08:31;7.60;;;3.00;;
50495;SDS011;38806;51.554;5.704;2023-03-23T13:10:34;9.00;;;1.88;;
50495;SDS011;38806;51.554;5.704;2023-03-23T13:12:36;6.88;;;1.95;;
50495;SDS011;38806;51.554;5.704;2023-03-23T13:19:09;5.15;;;2.03;;
50495;SDS011;38806;51.554;5.704;2023-03-23T13:23:28;6.78;;;2.30;;
50495;SDS011;38806;51.554;5.704;2023-03-23T13:27:34;9.52;;;2.67;;
50495;SDS011;38806;51.554;5.704;2023-03-23T13:29:35;6.75;;;2.60;;
50495;SDS011;38806;51.554;5.704;2023-03-23T13:31:36;8.50;;;2.37;;
50495;SDS011;38806;51.554;5.704;2023-03-23T13:33:36;9.52;;;2.65;;
50495;SDS011;38806;51.554;5.704;2023-03-23T13:35:37;4.32;;;1.63;;
50495;SDS011;38806;51.554;5.704;2023-03-23T13:37:44;5.80;;;2.08;;
50495;SDS011;38806;51.554;5.704;2023-03-23T13:39:49;5.03;;;1.93;;
50495;SDS011;38806;51.554;5.704;2023-03-23T13:42:01;8.77;;;2.45;;
50495;SDS011;38806;51.554;5.704;2023-03-23T13:44:05;6.82;;;2.05;;
50495;SDS011;38806;51.554;5.704;2023-03-23T13:48:18;4.45;;;2.17;;
50495;SDS011;38806;51.554;5.704;2023-03-23T13:54:24;8.43;;;2.97;;